Time;durP1;ratioP1;P1;durP2;ratioP2;P2;SDS_P1;SDS_P2;PMS_P1;PMS_P2;Temp;Humidity;BMP_temperature;BMP_pressure;BME280_temperature;BME280_humidity;BME280_pressure;Samples;Min_cycle;Max_cycle;Signal;HPM_P1;HPM_P2
2021/12/06 00:01:01;;;;;;;10.48;5.70;;;;;;;11.65;70.01;99723.75;5032163;28;20060;-56
2021/12/06 00:03:57;;;;;;;7.80;4.90;;;;;;;11.61;66.22;99733.75;5033140;28;20056;-57
2021/12/06 00:06:46;;;;;;;6.68;3.67;;;;;;;11.63;68.56;99736.13;5032675;28;20053;-56
2021/12/06 00:09:31;;;;;;;11.07;6.82;;;;;;;11.48;61.52;99724.81;5032663;28;20056;-57
2021/12/06 00:12:16;;;;;;;12.07;5.88;;;;;;;11.50;62.04;99713.59;5032739;28;20405;-57
2021/12/06 00:15:01;;;;;;;6.75;3.92;;;;;;;11.58;68.90;99718.09;5032456;28;20056;-58
2021/12/06 00:17:45;;;;;;;;;;;;;;;11.58;68.83;99702.53;5037512;28;20056;-56
2021/12/06 00:20:30;;;;;;;5.97;3.67;;;;;;;11.59;69.78;99703.34;5032035;28;19913;-59
2021/12/06 00:23:15;;;;;;;3.45;2.30;;;;;;;11.61;71.89;99706.53;5032753;28;20056;-59
2021/12/06 00:26:01;;;;;;;;;;;;;;;11.47;71.21;99704.19;5032989;28;20057;-59
2021/12/06 00:28:46;;;;;;;8.57;3.88;;;;;;;11.40;71.94;99705.91;5032348;28;19913;-59
2021/12/06 00:31:34;;;;;;;4.88;3.33;;;;;;;11.57;72.94;99705.63;5032095;28;20041;-59
2021/12/06 00:34:20;;;;;;;7.72;3.42;;;;;;;11.61;72.80;99698.34;5032315;28;20064;-59
2021/12/06 00:37:29;;;;;;;5.03;4.00;;;;;;;11.65;73.91;99699.25;5031100;28;20048;-59
2021/12/06 00:40:14;;;;;;;6.55;4.32;;;;;;;11.60;73.55;99702.22;5031548;28;20412;-59
2021/12/06 00:42:59;;;;;;;7.55;4.32;;;;;;;11.63;72.11;99706.94;5032360;28;20068;-59
2021/12/06 00:45:44;;;;;;;8.48;5.53;;;;;;;11.63;72.68;99706.94;5031812;28;20049;-59
2021/12/06 00:48:29;;;;;;;7.72;3.67;;;;;;;11.63;72.09;99712.41;5032395;28;20438;-59
2021/12/06 00:51:15;;;;;;;9.68;5.97;;;;;;;11.60;71.13;99710.38;5031492;28;20044;-59
2021/12/06 00:54:00;;;;;;;7.28;4.40;;;;;;;11.62;71.52;99719.00;5031932;28;20488;-59
2021/12/06 00:56:45;;;;;;;7.43;3.28;;;;;;;11.61;72.01;99728.31;5031844;28;20044;-59
2021/12/06 00:59:30;;;;;;;6.32;3.95;;;;;;;11.59;71.68;99733.28;5036137;28;20047;-59
2021/12/06 01:02:15;;;;;;;;;;;;;;;11.51;68.16;99729.59;5032098;28;20048;-59
2021/12/06 01:05:01;;;;;;;6.75;4.57;;;;;;;11.50;67.35;99744.34;5032273;28;19921;-59
2021/12/06 01:07:46;;;;;;;4.07;2.67;;;;;;;11.57;71.27;99749.19;5032093;28;20048;-59
2021/12/06 01:10:32;;;;;;;;;;;;;;;11.59;72.15;99755.06;5034564;28;20040;-59
2021/12/06 01:13:17;;;;;;;11.10;6.15;;;;;;;11.56;71.82;99759.28;5033407;28;19913;-59
2021/12/06 01:16:03;;;;;;;5.82;3.95;;;;;;;11.57;71.51;99762.81;5056200;28;20404;-58
2021/12/06 01:18:49;;;;;;;6.57;3.10;;;;;;;11.59;73.10;99765.97;5043278;28;20064;-59
2021/12/06 01:24:30;;;;;;;5.75;3.60;;;;;;;11.57;74.31;99768.25;5036135;28;20048;-58
2021/12/06 01:39:12;;;;;;;5.47;3.33;;;;;;;11.55;75.34;99773.25;5016533;28;20065;-59
2021/12/06 01:42:02;;;;;;;5.32;3.83;;;;;;;11.55;76.01;99762.34;5012499;28;20036;-59
2021/12/06 01:44:52;;;;;;;5.90;3.33;;;;;;;11.53;76.26;99764.63;5026504;28;20052;-59
2021/12/06 01:47:44;;;;;;;6.40;2.47;;;;;;;11.51;76.60;99764.19;5031780;28;20052;-59
2021/12/06 01:50:34;;;;;;;4.15;3.15;;;;;;;11.52;76.71;99765.78;5032346;28;20044;-58
2021/12/06 01:53:19;;;;;;;3.42;2.40;;;;;;;11.54;76.72;99768.94;5030626;28;20417;-59
2021/12/06 01:56:04;;;;;;;;;;;;;;;11.55;76.61;99768.59;5035034;28;20052;-59
2021/12/06 01:58:48;;;;;;;8.73;5.80;;;;;;;11.52;75.95;99766.56;5033916;28;19912;-59
2021/12/06 02:01:35;;;;;;;4.95;2.70;;;;;;;11.49;76.08;99767.25;5030351;28;20404;-59
2021/12/06 02:04:20;;;;;;;5.28;3.35;;;;;;;11.50;76.88;99773.50;5018027;28;20520;-60
2021/12/06 02:07:09;;;;;;;6.30;4.15;;;;;;;11.50;76.92;99768.03;5020825;28;20052;-59
2021/12/06 02:09:57;;;;;;;9.20;4.75;;;;;;;11.41;76.71;99761.94;5015181;28;20052;-59
2021/12/06 02:12:47;;;;;;;8.00;5.07;;;;;;;11.41;76.50;99765.47;5023838;28;20056;-58
2021/12/06 02:18:50;;;;;;;7.80;5.57;;;;;;;11.19;75.55;99757.78;5033782;28;20511;-59
2021/12/06 02:21:41;;;;;;;10.48;4.72;;;;;;;11.33;76.54;99760.94;5036383;28;20408;-59
2021/12/06 02:24:30;;;;;;;11.68;8.02;;;;;;;11.29;75.73;99764.69;5035320;28;20056;-58
2021/12/06 02:27:16;;;;;;;9.63;6.20;;;;;;;11.28;75.82;99765.81;5038261;28;20044;-60
2021/12/06 02:30:05;;;;;;;12.10;5.70;;;;;;;11.33;75.76;99766.38;5016699;28;20057;-59
2021/12/06 02:32:52;;;;;;;8.85;5.55;;;;;;;11.38;75.82;99759.88;5014326;28;20049;-59
2021/12/06 02:35:37;;;;;;;8.82;6.15;;;;;;;11.30;75.35;99761.63;5052317;23;20068;-76
2021/12/06 02:38:26;;;;;;;7.68;5.10;;;;;;;11.29;75.49;99761.97;5042132;28;20065;-78
2021/12/06 02:41:14;;;;;;;7.93;5.65;;;;;;;11.36;75.94;99764.91;5045895;28;20065;-77
2021/12/06 02:43:59;;;;;;;8.30;5.60;;;;;;;11.30;75.56;99758.09;5047913;28;20060;-76
2021/12/06 02:46:45;;;;;;;6.88;4.82;;;;;;;11.34;75.82;99772.59;5037406;28;20052;-76
2021/12/06 02:49:31;;;;;;;10.77;4.90;;;;;;;11.41;75.93;99776.34;5034455;28;20049;-76
2021/12/06 02:52:17;;;;;;;8.45;5.55;;;;;;;11.39;76.06;99775.88;5029815;28;20048;-76
2021/12/06 02:55:12;;;;;;;10.55;7.25;;;;;;;11.47;74.58;99774.19;5044478;28;20405;-76
2021/12/06 02:58:21;;;;;;;11.32;7.55;;;;;;;11.56;72.88;99783.00;5038973;28;20052;-77
2021/12/06 03:01:12;;;;;;;10.75;7.82;;;;;;;11.48;68.49;99776.53;5045335;28;20048;-76
2021/12/06 03:03:58;;;;;;;11.45;8.35;;;;;;;11.44;68.76;99781.09;5038512;28;20056;-76
2021/12/06 03:06:47;;;;;;;15.70;9.73;;;;;;;11.43;65.84;99786.88;5039811;28;20040;-76
2021/12/06 03:09:37;;;;;;;13.38;9.50;;;;;;;11.42;67.42;99790.75;5040973;28;20040;-76
2021/12/06 03:12:26;;;;;;;8.80;6.18;;;;;;;11.39;68.37;99786.78;5043547;28;20572;-77
2021/12/06 03:15:11;;;;;;;14.98;8.13;;;;;;;11.34;67.91;99792.44;5026544;28;20052;-76
2021/12/06 03:17:56;;;;;;;5.55;4.07;;;;;;;11.35;68.89;99787.81;5054536;28;20056;-75
2021/12/06 03:20:41;;;;;;;9.40;6.47;;;;;;;11.37;70.06;99794.50;5050682;28;20051;-79
2021/12/06 03:23:26;;;;;;;;;;;;;;;11.39;73.02;99799.59;5033176;28;20596;-78
2021/12/06 03:26:11;;;;;;;10.82;5.38;;;;;;;11.38;74.38;99789.84;5043089;28;20386;-78
2021/12/06 03:28:56;;;;;;;11.90;8.05;;;;;;;11.38;73.54;99800.72;5042490;28;20048;-78
2021/12/06 03:31:42;;;;;;;13.35;9.65;;;;;;;11.31;70.01;99795.06;5023170;28;20048;-78
2021/12/06 03:34:29;;;;;;;10.93;6.95;;;;;;;11.28;67.70;99795.75;5013041;28;20422;-77
2021/12/06 03:37:15;;;;;;;11.80;8.50;;;;;;;11.28;69.72;99798.47;5034451;28;20056;-78
2021/12/06 03:40:01;;;;;;;7.18;4.43;;;;;;;11.34;72.08;99799.81;5038925;28;20052;-76
2021/12/06 03:42:48;;;;;;;7.15;4.30;;;;;;;11.34;74.32;99802.53;5038469;28;20049;-78
2021/12/06 03:45:36;;;;;;;5.20;2.63;;;;;;;11.28;75.02;99801.97;5040507;28;20564;-78
2021/12/06 03:48:21;;;;;;;6.80;4.18;;;;;;;11.27;76.45;99805.88;5053262;28;20128;-78
2021/12/06 03:51:06;;;;;;;7.75;5.65;;;;;;;11.24;76.26;99805.72;5024144;28;20045;-78
2021/12/06 03:53:51;;;;;;;7.10;3.92;;;;;;;11.29;77.26;99810.94;5039905;28;20052;-77
2021/12/06 03:56:39;;;;;;;6.75;4.63;;;;;;;11.28;76.52;99817.50;5037522;28;20057;-76
2021/12/06 03:59:25;;;;;;;5.13;3.42;;;;;;;11.31;77.50;99812.19;5035783;28;20044;-77
2021/12/06 04:02:11;;;;;;;9.70;7.18;;;;;;;11.15;75.25;99812.09;5025788;28;20045;-77
2021/12/06 04:04:56;;;;;;;11.43;6.45;;;;;;;11.18;76.44;99815.25;5037184;28;20056;-78
2021/12/06 04:07:43;;;;;;;11.70;6.13;;;;;;;11.20;77.51;99816.50;5022128;28;20528;-77
2021/12/06 04:10:30;;;;;;;;;;;;;;;11.17;76.91;99814.50;5026687;28;20064;-77
2021/12/06 04:13:16;;;;;;;8.02;5.20;;;;;;;11.22;77.87;99813.47;5022997;28;19921;-77
2021/12/06 04:16:03;;;;;;;5.82;4.00;;;;;;;11.26;78.33;99819.81;5034623;28;20048;-76
2021/12/06 04:18:49;;;;;;;8.93;5.05;;;;;;;11.20;77.48;99824.69;5038746;28;20052;-77
2021/12/06 04:21:37;;;;;;;5.15;3.80;;;;;;;11.29;77.79;99824.56;5035912;28;20055;-76
2021/12/06 04:24:23;;;;;;;4.95;3.85;;;;;;;11.32;77.57;99830.13;5019939;28;20133;-78
2021/12/06 04:27:16;;;;;;;13.30;7.93;;;;;;;11.33;77.50;99837.13;5023251;28;20521;-78
2021/12/06 04:30:06;;;;;;;9.93;6.90;;;;;;;11.32;74.12;99846.47;5024295;28;20044;-77
2021/12/06 04:32:54;;;;;;;16.23;10.95;;;;;;;11.20;70.32;99835.56;5035373;28;20060;-78
2021/12/06 04:35:41;;;;;;;14.95;9.55;;;;;;;11.24;70.07;99838.38;5032912;28;20418;-78
2021/12/06 04:38:27;;;;;;;16.55;10.75;;;;;;;11.20;69.37;99843.72;5034503;28;20052;-78
2021/12/06 04:41:12;;;;;;;13.05;8.35;;;;;;;11.17;69.62;99843.63;5037861;28;20052;-76
2021/12/06 04:43:58;;;;;;;19.55;11.35;;;;;;;11.18;70.16;99845.19;5003882;28;20053;-77
2021/12/06 04:46:43;;;;;;;;;;;;;;;11.24;73.30;99849.28;5021735;28;20044;-76
2021/12/06 04:49:29;;;;;;;8.68;5.90;;;;;;;11.22;74.83;99841.47;5019554;28;19913;-76
2021/12/06 04:52:17;;;;;;;9.85;3.53;;;;;;;11.23;75.44;99839.50;5037151;28;20052;-76
2021/12/06 04:55:14;;;;;;;3.33;2.53;;;;;;;11.24;77.40;99839.19;5034791;28;20060;-77
2021/12/06 04:57:59;;;;;;;3.17;2.45;;;;;;;11.22;77.91;99843.41;5038799;28;20056;-77
2021/12/06 05:00:50;;;;;;;9.70;5.93;;;;;;;11.20;77.82;99851.09;5036885;28;20438;-78
2021/12/06 05:03:38;;;;;;;11.02;7.45;;;;;;;11.14;77.27;99845.09;5035066;28;20044;-77
2021/12/06 05:06:27;;;;;;;11.77;7.32;;;;;;;11.15;78.17;99852.91;5053058;28;20047;-77
2021/12/06 05:09:26;;;;;;;7.00;3.80;;;;;;;11.17;78.60;99854.50;5040757;28;20052;-76
2021/12/06 05:12:14;;;;;;;6.60;3.65;;;;;;;11.16;79.27;99856.44;5023635;28;20056;-77
2021/12/06 05:14:59;;;;;;;9.23;5.13;;;;;;;11.13;79.59;99865.25;5038452;28;20048;-76
2021/12/06 05:17:44;;;;;;;4.75;3.10;;;;;;;11.15;79.60;99868.44;5040237;28;20068;-77
2021/12/06 05:20:32;;;;;;;10.15;3.22;;;;;;;11.19;79.95;99866.63;5041361;28;20524;-78
2021/12/06 05:23:18;;;;;;;4.72;3.50;;;;;;;11.19;80.26;99869.34;5039111;28;20048;-76
2021/12/06 05:26:04;;;;;;;4.43;3.45;;;;;;;11.14;79.82;99873.09;5033299;28;20552;-76
2021/12/06 05:28:52;;;;;;;6.38;4.05;;;;;;;11.13;80.10;99867.97;5036204;28;20052;-77
2021/12/06 05:31:40;;;;;;;7.50;4.85;;;;;;;11.14;79.67;99878.53;5049017;28;20044;-78
2021/12/06 05:34:38;;;;;;;6.78;4.30;;;;;;;11.09;79.33;99877.97;5028883;28;20048;-77
2021/12/06 05:37:23;;;;;;;9.10;4.45;;;;;;;11.01;78.86;99879.66;5032673;28;20048;-76
2021/12/06 05:40:12;;;;;;;7.03;4.97;;;;;;;11.03;79.05;99888.25;5020075;28;20053;-75
2021/12/06 05:42:59;;;;;;;7.38;5.18;;;;;;;11.03;78.75;99892.91;5041859;28;20421;-76
2021/12/06 05:45:44;;;;;;;8.13;4.20;;;;;;;11.02;78.77;99896.78;5034197;28;20048;-76
2021/12/06 05:48:29;;;;;;;7.53;2.90;;;;;;;11.06;79.49;99903.94;5046095;28;20421;-77
2021/12/06 05:51:14;;;;;;;5.80;4.50;;;;;;;10.98;78.73;99904.81;5022195;28;20050;-76
2021/12/06 05:53:59;;;;;;;8.10;5.30;;;;;;;10.93;77.83;99905.03;5029960;28;20040;-76
2021/12/06 05:56:44;;;;;;;;;;;;;;;10.99;78.08;99911.84;5029237;28;20048;-76
2021/12/06 05:59:29;;;;;;;6.80;4.25;;;;;;;10.97;78.22;99907.88;5041389;28;20309;-77
2021/12/06 06:02:14;;;;;;;7.03;4.63;;;;;;;10.97;78.84;99919.53;5048109;28;20044;-78
2021/12/06 06:04:59;;;;;;;8.57;3.63;;;;;;;10.95;78.40;99921.81;5039075;28;20048;-78
2021/12/06 06:07:44;;;;;;;6.65;3.65;;;;;;;10.95;78.91;99935.41;5034117;28;20052;-76
2021/12/06 06:10:31;;;;;;;4.38;2.42;;;;;;;10.95;79.02;99934.63;5030167;28;20048;-77
2021/12/06 06:13:17;;;;;;;5.15;3.28;;;;;;;10.93;78.81;99948.53;5026475;28;20049;-78
2021/12/06 06:16:02;;;;;;;8.10;3.30;;;;;;;10.90;78.72;99941.06;5027232;28;20439;-77
2021/12/06 06:18:49;;;;;;;4.45;2.83;;;;;;;10.89;78.34;99942.19;5025387;28;20048;-78
2021/12/06 06:21:34;;;;;;;4.68;2.92;;;;;;;10.94;78.97;99958.31;5028473;28;20545;-77
2021/12/06 06:24:19;;;;;;;3.53;1.85;;;;;;;11.00;79.71;99953.44;5028252;28;20441;-75
2021/12/06 06:27:05;;;;;;;3.47;2.20;;;;;;;11.04;79.86;99957.06;5034778;28;20049;-78
2021/12/06 06:29:49;;;;;;;17.98;6.32;;;;;;;9.04;55.39;99930.78;5036003;28;20057;-75
2021/12/06 06:32:34;;;;;;;19.75;7.25;;;;;;;7.20;57.93;99941.31;5031368;28;20036;-76
2021/12/06 06:35:19;;;;;;;20.98;5.72;;;;;;;6.68;61.75;99946.44;5034262;28;20049;-75
2021/12/06 06:38:04;;;;;;;8.57;4.00;;;;;;;6.16;61.22;99950.63;5030494;28;20418;-75
2021/12/06 06:40:50;;;;;;;6.68;3.65;;;;;;;5.85;61.34;99950.47;5035273;28;20045;-77
2021/12/06 06:43:35;;;;;;;9.93;4.47;;;;;;;5.45;60.29;99944.03;5045478;28;20584;-77
2021/12/06 06:46:20;;;;;;;15.65;3.78;;;;;;;5.15;60.65;99945.41;5022964;28;20052;-76
2021/12/06 06:49:05;;;;;;;14.43;4.82;;;;;;;5.31;60.18;99950.50;5033203;28;20052;-76
2021/12/06 06:51:49;;;;;;;9.68;2.83;;;;;;;5.20;59.60;99954.50;5032977;28;20044;-76
2021/12/06 06:54:34;;;;;;;11.43;3.15;;;;;;;5.03;59.49;99955.88;5021266;28;20525;-75
2021/12/06 06:57:19;;;;;;;7.88;3.28;;;;;;;5.32;59.92;99963.72;5037822;28;20056;-75
2021/12/06 07:00:08;;;;;;;16.33;8.88;;;;;;;5.21;58.09;99958.78;5053610;28;20048;-77
2021/12/06 07:02:54;;;;;;;16.80;7.65;;;;;;;5.24;59.17;99955.50;5036018;28;20045;-75
2021/12/06 07:05:38;;;;;;;5.32;2.67;;;;;;;5.23;57.43;99960.09;5041369;28;20040;-75
2021/12/06 07:08:23;;;;;;;10.38;2.90;;;;;;;5.20;57.01;99966.06;5029143;28;20052;-75
2021/12/06 07:11:08;;;;;;;13.10;2.45;;;;;;;4.97;58.11;99970.53;5029481;28;20414;-73
2021/12/06 07:13:53;;;;;;;7.70;3.80;;;;;;;5.05;58.77;99969.84;5025165;28;20449;-76
2021/12/06 07:16:38;;;;;;;;;;;;;;;4.98;57.49;99969.44;5026450;28;20128;-75
2021/12/06 07:19:23;;;;;;;15.23;3.10;;;;;;;4.75;57.81;99970.38;5029810;28;19917;-76
2021/12/06 07:22:08;;;;;;;6.18;2.45;;;;;;;5.01;56.55;99974.25;5027528;28;20512;-76
2021/12/06 07:24:53;;;;;;;6.97;3.05;;;;;;;5.08;57.29;99982.72;5034869;28;20056;-74
2021/12/06 07:27:38;;;;;;;10.45;6.32;;;;;;;4.48;59.01;99991.81;5026533;28;20044;-78
2021/12/06 07:30:23;;;;;;;20.90;5.88;;;;;;;5.52;71.39;100000.25;5033515;28;20048;-78
2021/12/06 07:33:07;;;;;;;17.77;4.80;;;;;;;6.03;74.70;100002.75;5031601;28;20529;-77
2021/12/06 07:35:52;;;;;;;36.08;6.47;;;;;;;6.42;76.30;100002.97;5011649;28;20061;-75
2021/12/06 07:38:38;;;;;;;31.67;4.70;;;;;;;6.76;77.86;100009.72;5014867;28;20053;-76
2021/12/06 07:41:24;;;;;;;16.05;4.70;;;;;;;7.02;79.02;100009.91;5024471;28;20819;-78
2021/12/06 07:44:09;;;;;;;11.80;4.10;;;;;;;7.24;79.36;100004.47;5032211;28;20056;-76
2021/12/06 07:46:54;;;;;;;13.60;4.05;;;;;;;7.41;78.11;100007.28;5034570;28;20064;-77
2021/12/06 07:49:43;;;;;;;11.77;2.97;;;;;;;7.62;77.93;100015.63;5033004;28;20044;-76
2021/12/06 07:52:27;;;;;;;14.52;4.07;;;;;;;7.75;78.84;100022.84;5023192;28;20044;-77
2021/12/06 07:55:14;;;;;;;11.50;2.65;;;;;;;7.90;79.20;100029.75;5033692;28;20056;-78
2021/12/06 07:57:59;;;;;;;14.68;3.50;;;;;;;8.01;79.79;100031.06;5020353;28;20236;-75
2021/12/06 08:00:47;;;;;;;10.82;3.47;;;;;;;8.13;80.15;100029.31;5031867;28;20048;-75
2021/12/06 08:03:32;;;;;;;10.45;2.88;;;;;;;8.21;80.42;100035.88;5034856;28;20533;-75
2021/12/06 08:06:16;;;;;;;12.30;2.97;;;;;;;8.29;80.60;100035.09;5032643;28;20064;-75
2021/12/06 08:09:02;;;;;;;4.82;2.70;;;;;;;8.40;80.77;100039.13;5032747;28;20410;-75
2021/12/06 08:11:47;;;;;;;7.68;2.25;;;;;;;8.49;81.05;100042.63;5021002;28;20041;-76
2021/12/06 08:14:32;;;;;;;9.98;3.13;;;;;;;8.56;81.28;100042.16;5032924;28;20417;-76
2021/12/06 08:17:19;;;;;;;8.55;3.00;;;;;;;8.65;80.98;100048.38;5022470;28;20533;-75
2021/12/06 08:20:07;;;;;;;8.25;2.85;;;;;;;8.75;80.82;100055.38;5031625;28;20414;-77
2021/12/06 08:22:52;;;;;;;9.00;3.05;;;;;;;8.80;80.48;100052.53;5034312;28;20048;-76
2021/12/06 08:25:39;;;;;;;5.25;1.88;;;;;;;8.89;80.59;100061.44;5030795;28;20064;-76
2021/12/06 08:28:24;;;;;;;5.32;2.58;;;;;;;8.92;80.60;100061.63;5031566;28;20406;-76
2021/12/06 08:31:11;;;;;;;7.70;2.70;;;;;;;8.98;80.64;100060.34;5033197;28;20048;-79
2021/12/06 08:33:56;;;;;;;5.55;2.25;;;;;;;9.04;80.62;100069.09;5036978;28;20056;-75
2021/12/06 08:36:41;;;;;;;7.47;2.40;;;;;;;9.11;80.44;100072.13;5029492;28;20453;-75
2021/12/06 08:39:26;;;;;;;;;;;;;;;9.18;80.01;100074.34;5060598;22;20048;-56
2021/12/06 08:42:11;;;;;;;8.40;3.85;;;;;;;9.21;80.12;100081.84;5032843;28;19921;-55
2021/12/06 08:44:56;;;;;;;11.00;2.10;;;;;;;9.24;80.18;100079.31;5039550;28;20404;-55
2021/12/06 08:47:42;;;;;;;6.57;2.15;;;;;;;9.32;79.83;100083.09;5039377;28;20040;-55
2021/12/06 08:50:29;;;;;;;7.53;2.10;;;;;;;9.36;79.67;100082.13;5032633;28;20048;-55
2021/12/06 08:53:14;;;;;;;3.35;2.03;;;;;;;9.38;79.42;100098.09;5032630;28;20048;-55
2021/12/06 08:55:59;;;;;;;7.03;2.00;;;;;;;9.40;79.69;100104.78;5032772;28;20052;-55
2021/12/06 08:58:45;;;;;;;5.00;1.40;;;;;;;9.44;79.46;100111.19;5032389;28;20048;-55
2021/12/06 09:01:30;;;;;;;6.72;2.03;;;;;;;9.48;79.20;100111.34;5032589;28;20082;-55
2021/12/06 09:04:15;;;;;;;8.38;2.00;;;;;;;9.50;78.93;100114.50;5032487;28;20068;-55
2021/12/06 09:07:01;;;;;;;11.23;2.63;;;;;;;9.55;78.65;100122.47;5032108;28;20048;-55
2021/12/06 09:09:49;;;;;;;10.32;2.45;;;;;;;9.61;78.59;100125.81;5039237;28;20048;-55
2021/12/06 09:12:34;;;;;;;7.30;2.10;;;;;;;9.61;78.22;100126.63;5038712;28;20113;-55
2021/12/06 09:15:20;;;;;;;7.95;1.90;;;;;;;9.64;78.25;100136.03;5032410;28;20052;-55
2021/12/06 09:18:05;;;;;;;4.82;2.15;;;;;;;9.66;77.97;100139.22;5032335;28;20048;-55
2021/12/06 09:20:53;;;;;;;5.75;1.98;;;;;;;9.68;77.46;100145.94;5032300;28;20057;-55
2021/12/06 09:23:38;;;;;;;4.82;2.13;;;;;;;9.70;77.02;100151.06;5032238;28;20052;-55
2021/12/06 09:26:23;;;;;;;6.88;1.85;;;;;;;9.73;76.77;100150.38;5032687;28;20052;-56
2021/12/06 09:29:08;;;;;;;3.83;1.52;;;;;;;9.73;76.26;100162.06;5032415;28;20048;-55
2021/12/06 09:31:55;;;;;;;2.47;1.23;;;;;;;9.74;75.04;100168.28;5032468;28;20416;-55
2021/12/06 09:34:44;;;;;;;5.70;2.50;;;;;;;9.74;74.57;100174.50;5032354;28;20048;-55
2021/12/06 09:37:29;;;;;;;7.07;2.17;;;;;;;9.75;74.05;100175.31;5032285;28;20052;-55
2021/12/06 09:40:15;;;;;;;4.10;1.75;;;;;;;9.81;74.83;100180.22;5032191;28;20424;-55
2021/12/06 09:43:01;;;;;;;4.57;2.30;;;;;;;9.83;74.27;100178.00;5032220;28;20058;-55
2021/12/06 09:45:48;;;;;;;4.75;2.28;;;;;;;9.85;74.03;100177.69;5038944;28;20049;-55
2021/12/06 09:48:34;;;;;;;6.45;2.58;;;;;;;9.86;73.47;100171.09;5032295;28;20052;-55
2021/12/06 09:51:25;;;;;;;6.18;2.45;;;;;;;9.89;73.03;100173.19;5032055;28;20045;-55
2021/12/06 09:54:11;;;;;;;6.38;2.65;;;;;;;9.88;72.37;100177.03;5032330;28;20401;-55
2021/12/06 09:56:58;;;;;;;4.70;2.40;;;;;;;9.92;72.30;100175.25;5032368;28;20052;-55
2021/12/06 09:59:45;;;;;;;3.30;1.83;;;;;;;9.93;71.86;100174.13;5031957;28;20060;-55
2021/12/06 10:02:30;;;;;;;5.57;2.45;;;;;;;9.94;69.95;100172.22;5032298;28;20049;-55
2021/12/06 10:05:14;;;;;;;4.53;2.40;;;;;;;9.93;69.13;100170.63;5032015;28;20056;-55
2021/12/06 10:08:00;;;;;;;2.80;1.67;;;;;;;9.94;68.36;100170.31;5032300;28;20048;-55
2021/12/06 10:10:45;;;;;;;6.97;3.38;;;;;;;9.97;68.49;100156.06;5032149;28;20056;-55
2021/12/06 10:13:31;;;;;;;8.35;3.00;;;;;;;9.98;68.61;100154.94;5032168;28;20048;-55
2021/12/06 10:16:16;;;;;;;4.32;1.92;;;;;;;10.00;68.81;100157.34;5031928;28;20044;-55
2021/12/06 10:19:01;;;;;;;7.95;3.55;;;;;;;9.97;66.88;100155.25;5032090;28;20057;-55
2021/12/06 10:21:47;;;;;;;7.90;3.28;;;;;;;10.03;67.30;100157.50;5031850;28;20056;-55
2021/12/06 10:24:32;;;;;;;14.43;3.10;;;;;;;9.98;66.95;100141.38;5033716;28;20618;-55
2021/12/06 10:27:17;;;;;;;4.80;2.53;;;;;;;10.07;68.55;100150.28;5035295;28;20060;-55
2021/12/06 10:30:10;;;;;;;4.35;2.40;;;;;;;10.16;69.57;100147.56;5035213;28;20052;-55
2021/12/06 10:33:12;;;;;;;7.65;3.60;;;;;;;10.18;69.19;100148.84;5035300;28;20044;-55
2021/12/06 10:36:02;;;;;;;6.28;2.65;;;;;;;10.21;70.36;100150.88;5032653;28;20048;-55
2021/12/06 10:38:53;;;;;;;6.75;3.25;;;;;;;10.22;69.69;100146.25;5035488;28;20049;-55
2021/12/06 10:41:38;;;;;;;6.57;3.88;;;;;;;10.24;70.02;100149.44;5035278;28;20523;-55
2021/12/06 10:44:25;;;;;;;7.15;2.95;;;;;;;10.26;70.25;100139.03;5035165;28;20057;-55
2021/12/06 10:47:12;;;;;;;7.60;2.72;;;;;;;10.31;70.92;100146.22;5035538;28;20060;-55
2021/12/06 10:50:17;;;;;;;12.05;3.65;;;;;;;10.34;70.35;100142.84;5040833;28;20048;-55
2021/12/06 10:53:03;;;;;;;12.25;3.28;;;;;;;10.27;67.91;100146.88;5035030;28;20040;-55
2021/12/06 10:55:51;;;;;;;9.70;3.70;;;;;;;10.16;61.98;100134.75;5035052;28;20053;-55
2021/12/06 10:58:36;;;;;;;9.80;3.05;;;;;;;10.09;59.08;100131.75;5035351;28;20053;-55
2021/12/06 11:01:27;;;;;;;6.68;2.40;;;;;;;10.01;55.83;100124.41;5034889;28;20052;-55
2021/12/06 11:04:16;;;;;;;5.45;2.65;;;;;;;10.06;54.56;100121.50;5035140;28;20056;-55
2021/12/06 11:07:06;;;;;;;10.05;2.50;;;;;;;9.97;52.48;100126.19;5034750;28;20048;-55
2021/12/06 11:09:52;;;;;;;4.75;1.90;;;;;;;10.04;53.52;100129.22;5034849;28;20068;-55
2021/12/06 11:12:37;;;;;;;9.65;1.60;;;;;;;10.03;50.69;100127.63;5034649;28;20044;-56
2021/12/06 11:15:22;;;;;;;1.13;0.70;;;;;;;10.02;49.84;100120.56;5034227;28;20060;-55
2021/12/06 11:18:07;;;;;;;3.38;1.05;;;;;;;10.07;50.77;100125.84;5034461;28;20068;-55
2021/12/06 11:20:52;;;;;;;;;;;;;;;10.16;50.87;100131.25;5034805;28;20072;-55
2021/12/06 11:23:55;;;;;;;5.70;1.50;;;;;;;10.21;51.58;100131.88;5034476;28;19917;-55
2021/12/06 11:26:57;;;;;;;4.95;1.45;;;;;;;10.22;51.27;100129.94;5034207;28;20064;-55
2021/12/06 11:29:48;;;;;;;8.00;1.27;;;;;;;10.22;49.61;100128.03;5034651;28;20056;-55
2021/12/06 11:32:36;;;;;;;1.58;0.80;;;;;;;10.19;47.47;100120.53;5034094;28;20048;-56
2021/12/06 11:35:24;;;;;;;2.88;1.38;;;;;;;10.25;47.57;100116.53;5034152;28;20052;-56
2021/12/06 11:38:18;;;;;;;2.42;0.95;;;;;;;10.22;47.09;100116.38;5034226;28;20049;-55
2021/12/06 11:41:10;;;;;;;3.22;1.35;;;;;;;10.31;48.13;100119.81;5034178;28;20057;-55
2021/12/06 11:43:57;;;;;;;2.58;1.05;;;;;;;10.31;47.86;100122.53;5040501;28;20046;-55
2021/12/06 11:46:43;;;;;;;4.60;0.70;;;;;;;10.34;47.31;100118.41;5033910;28;20176;-55
2021/12/06 11:49:33;;;;;;;2.28;0.60;;;;;;;10.37;46.36;100115.81;5033835;28;20409;-55
2021/12/06 11:52:22;;;;;;;3.50;1.00;;;;;;;10.44;46.98;100126.16;5033633;28;20060;-55
2021/12/06 11:55:11;;;;;;;4.53;1.00;;;;;;;10.47;46.94;100117.34;5033886;28;20049;-55
2021/12/06 11:57:56;;;;;;;3.42;1.23;;;;;;;10.48;47.08;100111.59;5033869;28;20519;-55
2021/12/06 12:00:41;;;;;;;2.05;0.93;;;;;;;10.53;47.79;100113.31;5033655;28;20527;-55
2021/12/06 12:03:31;;;;;;;6.28;1.10;;;;;;;10.59;49.80;100117.44;5033738;28;20412;-55
2021/12/06 12:06:32;;;;;;;3.42;0.95;;;;;;;10.64;50.14;100117.25;5033658;28;20040;-55
2021/12/06 12:09:28;;;;;;;4.15;0.90;;;;;;;10.64;46.87;100106.38;5033642;28;20400;-55
2021/12/06 12:12:23;;;;;;;1.17;0.68;;;;;;;10.65;46.06;100113.41;5034042;28;20044;-55
2021/12/06 12:15:07;;;;;;;12.45;2.85;;;;;;;10.68;48.16;100110.81;5033535;28;20064;-55
2021/12/06 12:17:53;;;;;;;4.43;2.33;;;;;;;10.69;47.71;100106.19;5033546;28;20056;-55
2021/12/06 12:20:37;;;;;;;6.30;1.70;;;;;;;10.72;48.94;100110.94;5033236;28;20541;-55
2021/12/06 12:23:25;;;;;;;5.65;1.83;;;;;;;10.73;46.96;100115.25;5033452;28;20053;-55
2021/12/06 12:26:18;;;;;;;3.85;2.63;;;;;;;10.77;47.14;100112.69;5033498;28;20057;-55
2021/12/06 12:29:12;;;;;;;5.70;3.25;;;;;;;10.77;46.85;100108.03;5033587;28;20056;-55
2021/12/06 12:32:03;;;;;;;3.70;2.70;;;;;;;10.78;46.32;100114.28;5033319;28;20044;-55
2021/12/06 12:34:50;;;;;;;7.57;3.83;;;;;;;10.81;47.15;100114.41;5033101;28;20072;-55
2021/12/06 12:37:39;;;;;;;9.63;4.65;;;;;;;10.91;49.21;100116.75;5033309;28;20053;-55
2021/12/06 12:40:37;;;;;;;8.88;3.53;;;;;;;10.92;47.37;100114.81;5033876;28;20068;-55
2021/12/06 12:43:53;;;;;;;6.63;2.78;;;;;;;10.99;48.29;100117.78;5033126;28;20052;-55
2021/12/06 12:46:40;;;;;;;4.72;2.40;;;;;;;11.00;44.55;100103.88;5032446;28;20070;-55
2021/12/06 12:49:30;;;;;;;5.72;2.65;;;;;;;11.04;48.02;100101.28;5032044;28;20072;-55
2021/12/06 12:52:33;;;;;;;4.32;1.50;;;;;;;11.11;47.61;100106.97;5032869;28;20074;-55
2021/12/06 12:55:29;;;;;;;8.32;1.50;;;;;;;11.23;52.58;100108.94;5032863;28;20044;-55
2021/12/06 12:58:23;;;;;;;4.50;1.15;;;;;;;11.28;53.54;100111.44;5032904;28;20052;-56
2021/12/06 13:01:09;;;;;;;13.07;1.90;;;;;;;11.36;56.61;100108.66;5033001;28;20068;-55
2021/12/06 13:03:59;;;;;;;8.20;2.10;;;;;;;11.43;60.28;100102.66;5032757;28;20049;-55
2021/12/06 13:06:47;;;;;;;2.95;1.67;;;;;;;16.75;47.27;100101.03;5032642;28;20060;-58
2021/12/06 13:09:32;;;;;;;14.45;2.25;;;;;;;22.39;31.57;100108.84;5025700;28;20043;-58
2021/12/06 13:12:18;;;;;;;1.10;0.70;;;;;;;25.96;21.12;100113.38;5031215;28;20052;-59
2021/12/06 13:15:17;;;;;;;5.15;1.70;;;;;;;24.56;25.00;100107.53;5028771;28;20056;-59
2021/12/06 13:18:07;;;;;;;5.78;2.42;;;;;;;23.01;23.78;100109.38;5029416;28;20052;-59
2021/12/06 13:20:53;;;;;;;7.65;3.30;;;;;;;24.66;21.30;100101.78;5030869;28;20045;-59
2021/12/06 13:23:37;;;;;;;8.85;3.85;;;;;;;25.90;19.79;100098.41;5025489;28;20053;-59
2021/12/06 13:26:35;;;;;;;10.90;5.15;;;;;;;26.15;18.45;100108.97;5025174;28;20068;-59